sensor_id;sensor_type;location;lat;lon;timestamp;pressure;altitude;pressure_sealevel;temperature;humidity
72428;BME280;60419;48.880;18.036;2024-01-07T00:00:24;97823.16;;;2.61;92.03
72428;BME280;60419;48.880;18.036;2024-01-07T00:03:10;97815.53;;;2.20;92.20
72428;BME280;60419;48.880;18.036;2024-01-07T00:05:55;97823.38;;;2.36;92.64
72428;BME280;60419;48.880;18.036;2024-01-07T00:08:40;97814.47;;;2.50;91.80
72428;BME280;60419;48.880;18.036;2024-01-07T00:11:26;97826.53;;;2.43;92.27
72428;BME280;60419;48.880;18.036;2024-01-07T00:14:11;97788.88;;;2.20;92.17
72428;BME280;60419;48.880;18.036;2024-01-07T00:16:57;97828.19;;;2.34;91.71
72428;BME280;60419;48.880;18.036;2024-01-07T00:19:42;97838.47;;;2.21;92.05
72428;BME280;60419;48.880;18.036;2024-01-07T00:22:27;97825.97;;;2.17;92.94
72428;BME280;60419;48.880;18.036;2024-01-07T00:25:13;97823.66;;;2.05;92.85
72428;BME280;60419;48.880;18.036;2024-01-07T00:27:58;97825.03;;;2.32;92.23
72428;BME280;60419;48.880;18.036;2024-01-07T00:30:44;97825.06;;;1.97;92.91
72428;BME280;60419;48.880;18.036;2024-01-07T00:33:31;97828.69;;;2.12;92.75
72428;BME280;60419;48.880;18.036;2024-01-07T00:36:16;97827.78;;;1.92;93.25
72428;BME280;60419;48.880;18.036;2024-01-07T00:39:02;97826.94;;;1.97;93.03
72428;BME280;60419;48.880;18.036;2024-01-07T00:41:47;97822.38;;;2.02;92.65
72428;BME280;60419;48.880;18.036;2024-01-07T00:44:33;97822.94;;;1.94;92.16
72428;BME280;60419;48.880;18.036;2024-01-07T00:47:18;97828.66;;;1.82;92.85
72428;BME280;60419;48.880;18.036;2024-01-07T00:50:04;97834.53;;;1.79;92.85
72428;BME280;60419;48.880;18.036;2024-01-07T00:52:49;97846.28;;;1.73;92.61
72428;BME280;60419;48.880;18.036;2024-01-07T00:55:35;97849.75;;;1.74;92.90
72428;BME280;60419;48.880;18.036;2024-01-07T00:58:20;97837.41;;;1.83;92.36
72428;BME280;60419;48.880;18.036;2024-01-07T01:01:06;97844.09;;;1.80;92.67
72428;BME280;60419;48.880;18.036;2024-01-07T01:03:51;97847.78;;;1.45;93.53
72428;BME280;60419;48.880;18.036;2024-01-07T01:06:36;97838.19;;;1.44;93.28
72428;BME280;60419;48.880;18.036;2024-01-07T01:09:22;97840.22;;;1.62;92.89
72428;BME280;60419;48.880;18.036;2024-01-07T01:12:07;97860.16;;;1.65;92.74
72428;BME280;60419;48.880;18.036;2024-01-07T01:14:53;97847.47;;;1.52;92.92
72428;BME280;60419;48.880;18.036;2024-01-07T01:17:38;97840.31;;;1.47;92.51
72428;BME280;60419;48.880;18.036;2024-01-07T01:20:23;97833.09;;;1.53;92.40
72428;BME280;60419;48.880;18.036;2024-01-07T01:23:09;97833.16;;;1.48;92.46
72428;BME280;60419;48.880;18.036;2024-01-07T01:25:54;97834.19;;;1.47;92.44
72428;BME280;60419;48.880;18.036;2024-01-07T01:28:39;97852.28;;;1.50;92.23
72428;BME280;60419;48.880;18.036;2024-01-07T01:31:25;97855.97;;;1.54;92.28
72428;BME280;60419;48.880;18.036;2024-01-07T01:34:10;97862.34;;;1.53;92.68
72428;BME280;60419;48.880;18.036;2024-01-07T01:36:55;97850.22;;;1.36;92.22
72428;BME280;60419;48.880;18.036;2024-01-07T01:39:41;97837.22;;;1.35;92.53
72428;BME280;60419;48.880;18.036;2024-01-07T01:42:27;97870.44;;;1.37;92.49
72428;BME280;60419;48.880;18.036;2024-01-07T01:45:12;97865.63;;;1.39;92.33
72428;BME280;60419;48.880;18.036;2024-01-07T01:47:57;97860.84;;;1.41;92.58
72428;BME280;60419;48.880;18.036;2024-01-07T01:50:43;97847.31;;;1.33;92.87
72428;BME280;60419;48.880;18.036;2024-01-07T01:53:29;97870.22;;;1.29;92.32
72428;BME280;60419;48.880;18.036;2024-01-07T01:56:19;97865.97;;;1.28;92.74
72428;BME280;60419;48.880;18.036;2024-01-07T01:59:05;97857.19;;;1.27;92.98
72428;BME280;60419;48.880;18.036;2024-01-07T02:01:51;97843.38;;;1.20;93.23
72428;BME280;60419;48.880;18.036;2024-01-07T02:04:36;97879.28;;;1.23;93.02
72428;BME280;60419;48.880;18.036;2024-01-07T02:07:22;97873.19;;;1.22;92.77
72428;BME280;60419;48.880;18.036;2024-01-07T02:10:07;97851.97;;;1.07;93.99
72428;BME280;60419;48.880;18.036;2024-01-07T02:12:53;97858.56;;;1.19;93.40
72428;BME280;60419;48.880;18.036;2024-01-07T02:15:40;97867.59;;;1.13;94.18
72428;BME280;60419;48.880;18.036;2024-01-07T02:18:25;97859.91;;;1.17;93.18
72428;BME280;60419;48.880;18.036;2024-01-07T02:21:12;97866.28;;;1.16;93.00
72428;BME280;60419;48.880;18.036;2024-01-07T02:23:58;97866.28;;;1.11;93.52
72428;BME280;60419;48.880;18.036;2024-01-07T02:26:43;97861.56;;;0.97;93.83
72428;BME280;60419;48.880;18.036;2024-01-07T02:29:29;97850.09;;;1.02;93.59
72428;BME280;60419;48.880;18.036;2024-01-07T02:32:14;97862.88;;;1.00;93.40
72428;BME280;60419;48.880;18.036;2024-01-07T02:35:00;97875.88;;;1.12;93.02
72428;BME280;60419;48.880;18.036;2024-01-07T02:37:45;97865.25;;;1.12;93.51
72428;BME280;60419;48.880;18.036;2024-01-07T02:40:31;97858.63;;;1.04;93.12
72428;BME280;60419;48.880;18.036;2024-01-07T02:43:16;97859.75;;;0.88;93.89
72428;BME280;60419;48.880;18.036;2024-01-07T02:46:01;97863.16;;;0.99;93.60
72428;BME280;60419;48.880;18.036;2024-01-07T02:48:47;97840.59;;;0.91;94.24
72428;BME280;60419;48.880;18.036;2024-01-07T02:51:32;97852.84;;;0.77;94.59
72428;BME280;60419;48.880;18.036;2024-01-07T02:54:18;97864.50;;;0.91;93.87
72428;BME280;60419;48.880;18.036;2024-01-07T02:57:03;97852.25;;;0.95;93.54
72428;BME280;60419;48.880;18.036;2024-01-07T02:59:48;97861.31;;;0.94;93.29
72428;BME280;60419;48.880;18.036;2024-01-07T03:02:34;97842.41;;;0.95;93.86
72428;BME280;60419;48.880;18.036;2024-01-07T03:05:19;97864.75;;;0.94;92.86
72428;BME280;60419;48.880;18.036;2024-01-07T03:08:05;97852.03;;;0.81;93.58
72428;BME280;60419;48.880;18.036;2024-01-07T03:10:50;97842.97;;;0.87;93.45
72428;BME280;60419;48.880;18.036;2024-01-07T03:13:36;97843.53;;;0.84;93.53
72428;BME280;60419;48.880;18.036;2024-01-07T03:16:22;97855.78;;;0.80;93.63
72428;BME280;60419;48.880;18.036;2024-01-07T03:19:08;97841.44;;;0.71;94.54
72428;BME280;60419;48.880;18.036;2024-01-07T03:21:53;97857.91;;;0.73;93.86
72428;BME280;60419;48.880;18.036;2024-01-07T03:24:39;97851.00;;;0.67;93.75
72428;BME280;60419;48.880;18.036;2024-01-07T03:27:24;97866.69;;;0.63;94.08
72428;BME280;60419;48.880;18.036;2024-01-07T03:30:10;97844.66;;;0.52;94.71
72428;BME280;60419;48.880;18.036;2024-01-07T03:32:55;97857.13;;;0.67;94.45
72428;BME280;60419;48.880;18.036;2024-01-07T03:35:41;97861.16;;;0.49;94.59
72428;BME280;60419;48.880;18.036;2024-01-07T03:38:26;97845.44;;;0.58;93.47
72428;BME280;60419;48.880;18.036;2024-01-07T03:41:19;97835.16;;;0.36;94.04
72428;BME280;60419;48.880;18.036;2024-01-07T03:44:04;97860.88;;;0.56;93.63
72428;BME280;60419;48.880;18.036;2024-01-07T03:46:50;97834.81;;;0.63;92.84
72428;BME280;60419;48.880;18.036;2024-01-07T03:49:36;97862.19;;;0.59;93.16
72428;BME280;60419;48.880;18.036;2024-01-07T03:52:22;97854.50;;;0.57;93.36
72428;BME280;60419;48.880;18.036;2024-01-07T03:55:08;97867.03;;;0.41;94.11
72428;BME280;60419;48.880;18.036;2024-01-07T03:57:53;97865.69;;;0.49;93.90
72428;BME280;60419;48.880;18.036;2024-01-07T04:00:39;97874.44;;;0.49;94.17
72428;BME280;60419;48.880;18.036;2024-01-07T04:03:24;97872.03;;;0.58;94.17
72428;BME280;60419;48.880;18.036;2024-01-07T04:06:09;97847.63;;;0.36;93.23
72428;BME280;60419;48.880;18.036;2024-01-07T04:08:55;97862.19;;;0.48;93.16
72428;BME280;60419;48.880;18.036;2024-01-07T04:11:41;97854.78;;;0.30;93.73
72428;BME280;60419;48.880;18.036;2024-01-07T04:14:26;97865.69;;;0.34;93.26
72428;BME280;60419;48.880;18.036;2024-01-07T04:17:12;97865.94;;;0.47;92.73
72428;BME280;60419;48.880;18.036;2024-01-07T04:19:58;97862.50;;;0.37;92.78
72428;BME280;60419;48.880;18.036;2024-01-07T04:22:43;97885.09;;;0.29;93.27
72428;BME280;60419;48.880;18.036;2024-01-07T04:25:29;97848.94;;;0.38;92.95
72428;BME280;60419;48.880;18.036;2024-01-07T04:28:14;97869.94;;;0.29;93.57
72428;BME280;60419;48.880;18.036;2024-01-07T04:30:59;97858.50;;;0.39;92.81
72428;BME280;60419;48.880;18.036;2024-01-07T04:33:45;97859.84;;;0.21;93.33
72428;BME280;60419;48.880;18.036;2024-01-07T04:36:30;97870.72;;;0.20;93.25
72428;BME280;60419;48.880;18.036;2024-01-07T04:39:15;97886.94;;;0.44;91.49
72428;BME280;60419;48.880;18.036;2024-01-07T04:42:01;97898.13;;;0.25;91.88
72428;BME280;60419;48.880;18.036;2024-01-07T04:44:46;97882.97;;;0.36;91.39
72428;BME280;60419;48.880;18.036;2024-01-07T04:47:33;97887.75;;;0.29;91.69
72428;BME280;60419;48.880;18.036;2024-01-07T04:50:21;97885.88;;;0.14;92.25
72428;BME280;60419;48.880;18.036;2024-01-07T04:53:06;97860.09;;;0.25;91.03
72428;BME280;60419;48.880;18.036;2024-01-07T04:55:51;97876.31;;;0.08;91.03
72428;BME280;60419;48.880;18.036;2024-01-07T04:58:37;97855.06;;;0.08;90.94
72428;BME280;60419;48.880;18.036;2024-01-07T05:01:22;97899.16;;;0.04;91.40
72428;BME280;60419;48.880;18.036;2024-01-07T05:04:08;97898.91;;;0.16;90.31
72428;BME280;60419;48.880;18.036;2024-01-07T05:06:53;97888.81;;;0.13;90.04
72428;BME280;60419;48.880;18.036;2024-01-07T05:09:39;97922.22;;;-0.07;90.36
72428;BME280;60419;48.880;18.036;2024-01-07T05:12:24;97898.09;;;0.05;89.08
72428;BME280;60419;48.880;18.036;2024-01-07T05:15:10;97928.84;;;-0.20;88.84
72428;BME280;60419;48.880;18.036;2024-01-07T05:17:56;97903.41;;;-0.00;87.92
72428;BME280;60419;48.880;18.036;2024-01-07T05:20:41;97831.88;;;-0.73;88.01
72428;BME280;60419;48.880;18.036;2024-01-07T05:23:26;97904.97;;;-0.15;87.50
72428;BME280;60419;48.880;18.036;2024-01-07T05:26:12;97894.06;;;-0.23;87.88
72428;BME280;60419;48.880;18.036;2024-01-07T05:28:57;97910.81;;;-0.13;87.51
72428;BME280;60419;48.880;18.036;2024-01-07T05:31:43;97902.28;;;-0.30;87.00
72428;BME280;60419;48.880;18.036;2024-01-07T05:34:28;97861.69;;;-0.25;87.03
72428;BME280;60419;48.880;18.036;2024-01-07T05:37:14;97906.28;;;-0.12;86.90
72428;BME280;60419;48.880;18.036;2024-01-07T05:39:59;97886.13;;;-0.13;85.84
72428;BME280;60419;48.880;18.036;2024-01-07T05:42:44;97907.59;;;-0.25;86.50
72428;BME280;60419;48.880;18.036;2024-01-07T05:45:30;97894.63;;;-0.06;85.54
72428;BME280;60419;48.880;18.036;2024-01-07T05:48:15;97910.28;;;-0.15;86.20
72428;BME280;60419;48.880;18.036;2024-01-07T05:51:00;97903.91;;;-0.19;86.83
72428;BME280;60419;48.880;18.036;2024-01-07T05:53:46;97830.78;;;-0.88;86.73
72428;BME280;60419;48.880;18.036;2024-01-07T05:56:32;97919.03;;;-0.19;85.12
72428;BME280;60419;48.880;18.036;2024-01-07T05:59:17;97923.00;;;-0.17;85.48
72428;BME280;60419;48.880;18.036;2024-01-07T06:02:03;97882.34;;;-0.38;85.18
72428;BME280;60419;48.880;18.036;2024-01-07T06:04:48;97913.16;;;-0.31;84.58
72428;BME280;60419;48.880;18.036;2024-01-07T06:07:34;97935.78;;;-0.14;84.72
72428;BME280;60419;48.880;18.036;2024-01-07T06:10:19;97942.59;;;-0.38;85.17
72428;BME280;60419;48.880;18.036;2024-01-07T06:13:04;97942.63;;;-0.28;84.33
72428;BME280;60419;48.880;18.036;2024-01-07T06:15:50;97912.84;;;-0.55;84.60
72428;BME280;60419;48.880;18.036;2024-01-07T06:18:35;97941.53;;;-0.42;83.68
72428;BME280;60419;48.880;18.036;2024-01-07T06:21:21;97915.81;;;-0.31;83.39
72428;BME280;60419;48.880;18.036;2024-01-07T06:24:09;97922.41;;;-0.44;83.02
72428;BME280;60419;48.880;18.036;2024-01-07T06:26:54;97929.91;;;-0.26;83.04
72428;BME280;60419;48.880;18.036;2024-01-07T06:29:40;97945.50;;;-0.50;84.13
72428;BME280;60419;48.880;18.036;2024-01-07T06:32:25;97931.19;;;-0.39;82.97
72428;BME280;60419;48.880;18.036;2024-01-07T06:35:11;97946.56;;;-0.41;82.84
72428;BME280;60419;48.880;18.036;2024-01-07T06:37:56;97936.22;;;-0.42;82.23
72428;BME280;60419;48.880;18.036;2024-01-07T06:40:42;97948.69;;;-0.38;82.58
72428;BME280;60419;48.880;18.036;2024-01-07T06:43:27;97971.97;;;-0.60;83.21
72428;BME280;60419;48.880;18.036;2024-01-07T06:46:13;97967.66;;;-0.71;83.50
72428;BME280;60419;48.880;18.036;2024-01-07T06:48:58;97961.16;;;-0.43;82.08
72428;BME280;60419;48.880;18.036;2024-01-07T06:51:43;97953.19;;;-0.43;82.75
72428;BME280;60419;48.880;18.036;2024-01-07T06:54:29;97933.06;;;-0.34;82.99
72428;BME280;60419;48.880;18.036;2024-01-07T06:57:14;97966.75;;;-0.40;82.22
72428;BME280;60419;48.880;18.036;2024-01-07T06:59:59;97948.94;;;-0.49;81.75
72428;BME280;60419;48.880;18.036;2024-01-07T07:02:45;97951.78;;;-0.66;82.64
72428;BME280;60419;48.880;18.036;2024-01-07T07:05:31;97919.09;;;-0.82;81.30
72428;BME280;60419;48.880;18.036;2024-01-07T07:08:16;97957.63;;;-0.59;82.57
72428;BME280;60419;48.880;18.036;2024-01-07T07:11:02;97981.34;;;-0.37;81.60
72428;BME280;60419;48.880;18.036;2024-01-07T07:13:47;97960.34;;;-0.49;81.43
72428;BME280;60419;48.880;18.036;2024-01-07T07:16:33;97972.50;;;-0.63;82.08
72428;BME280;60419;48.880;18.036;2024-01-07T07:19:18;97964.59;;;-0.53;81.37
72428;BME280;60419;48.880;18.036;2024-01-07T07:22:04;97972.19;;;-0.67;81.44
72428;BME280;60419;48.880;18.036;2024-01-07T07:24:49;97994.38;;;-0.88;81.46
72428;BME280;60419;48.880;18.036;2024-01-07T07:27:35;97975.13;;;-0.68;80.68
72428;BME280;60419;48.880;18.036;2024-01-07T07:30:20;97986.22;;;-0.76;81.31
72428;BME280;60419;48.880;18.036;2024-01-07T07:33:05;97995.53;;;-0.74;80.37
72428;BME280;60419;48.880;18.036;2024-01-07T07:35:51;97970.31;;;-0.76;80.32
72428;BME280;60419;48.880;18.036;2024-01-07T07:38:36;97992.75;;;-0.94;81.83
72428;BME280;60419;48.880;18.036;2024-01-07T07:41:22;97980.00;;;-0.92;81.36
72428;BME280;60419;48.880;18.036;2024-01-07T07:44:07;97987.47;;;-0.89;80.84
72428;BME280;60419;48.880;18.036;2024-01-07T07:46:52;98009.75;;;-0.85;81.13
72428;BME280;60419;48.880;18.036;2024-01-07T07:49:38;98033.34;;;-0.89;81.18
72428;BME280;60419;48.880;18.036;2024-01-07T07:52:25;98043.91;;;-0.94;79.92
72428;BME280;60419;48.880;18.036;2024-01-07T07:55:11;98008.03;;;-1.07;80.74
72428;BME280;60419;48.880;18.036;2024-01-07T07:57:56;98021.69;;;-0.83;80.16
72428;BME280;60419;48.880;18.036;2024-01-07T08:00:43;98027.41;;;-1.01;80.40
72428;BME280;60419;48.880;18.036;2024-01-07T08:03:28;98009.47;;;-1.26;81.16
72428;BME280;60419;48.880;18.036;2024-01-07T08:06:13;98034.06;;;-0.98;79.12
72428;BME280;60419;48.880;18.036;2024-01-07T08:08:59;98052.53;;;-1.09;80.39
72428;BME280;60419;48.880;18.036;2024-01-07T08:11:44;98029.47;;;-1.08;80.18
72428;BME280;60419;48.880;18.036;2024-01-07T08:14:31;98055.16;;;-1.14;79.52
72428;BME280;60419;48.880;18.036;2024-01-07T08:17:16;98013.22;;;-1.22;79.63
72428;BME280;60419;48.880;18.036;2024-01-07T08:20:02;98020.38;;;-1.23;78.78
72428;BME280;60419;48.880;18.036;2024-01-07T08:22:49;98009.81;;;-1.17;78.25
72428;BME280;60419;48.880;18.036;2024-01-07T08:25:35;98060.28;;;-1.02;78.00
72428;BME280;60419;48.880;18.036;2024-01-07T08:28:21;98059.50;;;-1.03;78.01
72428;BME280;60419;48.880;18.036;2024-01-07T08:31:06;98048.31;;;-1.10;78.13
72428;BME280;60419;48.880;18.036;2024-01-07T08:33:52;98070.84;;;-1.07;77.27
72428;BME280;60419;48.880;18.036;2024-01-07T08:36:37;98067.00;;;-1.22;77.12
72428;BME280;60419;48.880;18.036;2024-01-07T08:39:23;98042.22;;;-1.10;76.82
72428;BME280;60419;48.880;18.036;2024-01-07T08:42:10;98060.34;;;-0.97;76.04
72428;BME280;60419;48.880;18.036;2024-01-07T08:44:56;98080.78;;;-0.87;75.61
72428;BME280;60419;48.880;18.036;2024-01-07T08:47:41;98060.50;;;-1.09;75.28
72428;BME280;60419;48.880;18.036;2024-01-07T08:50:27;98068.88;;;-0.85;74.45
72428;BME280;60419;48.880;18.036;2024-01-07T08:53:12;98050.72;;;-1.03;73.84
72428;BME280;60419;48.880;18.036;2024-01-07T08:55:57;98045.38;;;-1.08;74.48
72428;BME280;60419;48.880;18.036;2024-01-07T08:58:43;98066.09;;;-1.05;74.55
72428;BME280;60419;48.880;18.036;2024-01-07T09:01:28;98096.34;;;-1.01;74.98
72428;BME280;60419;48.880;18.036;2024-01-07T09:04:13;98120.47;;;-1.03;74.16
72428;BME280;60419;48.880;18.036;2024-01-07T09:06:59;98029.13;;;-1.22;73.70
72428;BME280;60419;48.880;18.036;2024-01-07T09:09:44;98086.53;;;-1.01;73.37
72428;BME280;60419;48.880;18.036;2024-01-07T09:12:30;98096.50;;;-0.81;72.67
72428;BME280;60419;48.880;18.036;2024-01-07T09:15:18;98093.09;;;-0.76;72.30
72428;BME280;60419;48.880;18.036;2024-01-07T09:18:03;98097.75;;;-0.88;71.85
72428;BME280;60419;48.880;18.036;2024-01-07T09:20:49;98076.03;;;-0.48;72.11
72428;BME280;60419;48.880;18.036;2024-01-07T09:23:34;98109.47;;;-0.47;70.05
72428;BME280;60419;48.880;18.036;2024-01-07T09:26:21;98080.63;;;-0.75;71.59
72428;BME280;60419;48.880;18.036;2024-01-07T09:29:06;98098.91;;;-1.11;71.05
72428;BME280;60419;48.880;18.036;2024-01-07T09:31:52;98104.53;;;-1.08;70.62
72428;BME280;60419;48.880;18.036;2024-01-07T09:34:37;98077.34;;;-0.88;70.92
72428;BME280;60419;48.880;18.036;2024-01-07T09:37:22;98095.66;;;-0.86;70.69
72428;BME280;60419;48.880;18.036;2024-01-07T09:40:08;98057.38;;;-1.01;71.03
72428;BME280;60419;48.880;18.036;2024-01-07T09:42:55;98101.56;;;-1.11;71.02
72428;BME280;60419;48.880;18.036;2024-01-07T09:45:46;98099.25;;;-1.03;70.19
72428;BME280;60419;48.880;18.036;2024-01-07T09:48:32;98084.28;;;-0.87;69.93
72428;BME280;60419;48.880;18.036;2024-01-07T09:51:21;98078.94;;;-0.92;69.65
72428;BME280;60419;48.880;18.036;2024-01-07T09:54:08;98064.22;;;-1.10;70.62
72428;BME280;60419;48.880;18.036;2024-01-07T09:57:01;98069.19;;;-1.13;72.87
72428;BME280;60419;48.880;18.036;2024-01-07T09:59:47;98102.53;;;-0.90;69.95
72428;BME280;60419;48.880;18.036;2024-01-07T10:02:32;98080.44;;;-1.01;69.23
72428;BME280;60419;48.880;18.036;2024-01-07T10:05:18;98109.47;;;-1.16;70.46
72428;BME280;60419;48.880;18.036;2024-01-07T10:08:03;98099.91;;;-0.85;69.49
72428;BME280;60419;48.880;18.036;2024-01-07T10:10:49;98082.84;;;-0.99;69.04
72428;BME280;60419;48.880;18.036;2024-01-07T10:13:34;98103.88;;;-1.20;68.93
72428;BME280;60419;48.880;18.036;2024-01-07T10:16:20;98083.69;;;-0.94;67.26
72428;BME280;60419;48.880;18.036;2024-01-07T10:19:05;98094.25;;;-0.99;67.97
72428;BME280;60419;48.880;18.036;2024-01-07T10:21:59;98077.53;;;-0.99;68.04
72428;BME280;60419;48.880;18.036;2024-01-07T10:24:46;98062.44;;;-0.99;67.39
72428;BME280;60419;48.880;18.036;2024-01-07T10:27:34;98072.31;;;-0.89;67.16
72428;BME280;60419;48.880;18.036;2024-01-07T10:30:20;98107.06;;;-0.86;67.05
72428;BME280;60419;48.880;18.036;2024-01-07T10:33:07;98083.97;;;-0.90;66.39
72428;BME280;60419;48.880;18.036;2024-01-07T10:35:57;98086.81;;;-1.02;66.15
72428;BME280;60419;48.880;18.036;2024-01-07T10:38:44;98083.59;;;-1.04;66.74
72428;BME280;60419;48.880;18.036;2024-01-07T10:41:31;98087.38;;;-0.95;65.70
72428;BME280;60419;48.880;18.036;2024-01-07T10:44:16;98073.34;;;-0.90;66.52
72428;BME280;60419;48.880;18.036;2024-01-07T10:47:06;98075.50;;;-0.87;66.74
72428;BME280;60419;48.880;18.036;2024-01-07T10:49:54;98052.38;;;-0.97;66.38
72428;BME280;60419;48.880;18.036;2024-01-07T10:52:42;98068.53;;;-0.98;65.79
72428;BME280;60419;48.880;18.036;2024-01-07T10:55:32;98055.97;;;-1.08;66.42
72428;BME280;60419;48.880;18.036;2024-01-07T10:58:19;98054.56;;;-0.89;65.39
72428;BME280;60419;48.880;18.036;2024-01-07T11:01:06;98064.16;;;-1.15;65.62
72428;BME280;60419;48.880;18.036;2024-01-07T11:04:02;98055.78;;;-1.02;65.63
72428;BME280;60419;48.880;18.036;2024-01-07T11:10:10;98037.00;;;-0.95;65.23
72428;BME280;60419;48.880;18.036;2024-01-07T11:12:57;98064.50;;;-1.06;65.75
72428;BME280;60419;48.880;18.036;2024-01-07T11:18:33;98094.16;;;-1.09;65.77
72428;BME280;60419;48.880;18.036;2024-01-07T11:21:22;98081.53;;;-0.97;65.25
72428;BME280;60419;48.880;18.036;2024-01-07T11:24:09;98043.97;;;-1.21;65.55
72428;BME280;60419;48.880;18.036;2024-01-07T11:27:01;98089.00;;;-1.21;66.07
72428;BME280;60419;48.880;18.036;2024-01-07T11:30:37;98049.00;;;-1.19;65.21
72428;BME280;60419;48.880;18.036;2024-01-07T11:33:04;98037.38;;;-1.13;65.57
72428;BME280;60419;48.880;18.036;2024-01-07T11:35:57;98086.88;;;-1.24;66.67
72428;BME280;60419;48.880;18.036;2024-01-07T11:38:49;98068.59;;;-1.26;65.63
72428;BME280;60419;48.880;18.036;2024-01-07T11:41:36;98022.84;;;-1.43;65.68
72428;BME280;60419;48.880;18.036;2024-01-07T11:44:22;98079.09;;;-1.36;66.04
72428;BME280;60419;48.880;18.036;2024-01-07T11:47:08;98086.78;;;-1.34;65.73
72428;BME280;60419;48.880;18.036;2024-01-07T11:49:53;98060.00;;;-1.38;65.84
72428;BME280;60419;48.880;18.036;2024-01-07T11:52:41;98071.56;;;-1.17;65.17
72428;BME280;60419;48.880;18.036;2024-01-07T11:55:28;98073.69;;;-1.14;64.85
72428;BME280;60419;48.880;18.036;2024-01-07T11:58:14;98098.34;;;-1.13;64.47
72428;BME280;60419;48.880;18.036;2024-01-07T12:01:01;98042.94;;;-1.47;65.21
72428;BME280;60419;48.880;18.036;2024-01-07T12:03:46;98107.22;;;-1.03;64.95
72428;BME280;60419;48.880;18.036;2024-01-07T12:06:32;98067.00;;;-1.22;64.44
72428;BME280;60419;48.880;18.036;2024-01-07T12:09:17;98088.53;;;-1.18;64.69
72428;BME280;60419;48.880;18.036;2024-01-07T12:12:03;98042.97;;;-1.15;63.32
72428;BME280;60419;48.880;18.036;2024-01-07T12:14:49;98076.06;;;-1.45;64.56
72428;BME280;60419;48.880;18.036;2024-01-07T12:17:34;98093.50;;;-1.22;63.94
72428;BME280;60419;48.880;18.036;2024-01-07T12:20:20;98078.28;;;-1.36;64.24
72428;BME280;60419;48.880;18.036;2024-01-07T12:23:06;98089.94;;;-1.37;64.72
72428;BME280;60419;48.880;18.036;2024-01-07T12:25:53;98044.47;;;-1.24;64.46
72428;BME280;60419;48.880;18.036;2024-01-07T12:28:41;98026.19;;;-1.26;64.77
72428;BME280;60419;48.880;18.036;2024-01-07T12:31:26;98062.84;;;-1.45;64.93
72428;BME280;60419;48.880;18.036;2024-01-07T12:34:12;98066.34;;;-1.39;64.55
72428;BME280;60419;48.880;18.036;2024-01-07T12:36:57;98069.47;;;-1.42;65.04
72428;BME280;60419;48.880;18.036;2024-01-07T12:39:44;98051.16;;;-1.49;64.81
72428;BME280;60419;48.880;18.036;2024-01-07T12:42:30;98079.34;;;-1.64;64.75
72428;BME280;60419;48.880;18.036;2024-01-07T12:45:15;98045.53;;;-1.57;64.55
72428;BME280;60419;48.880;18.036;2024-01-07T12:48:01;98104.97;;;-1.43;64.41
72428;BME280;60419;48.880;18.036;2024-01-07T12:50:48;98049.53;;;-1.23;64.37
72428;BME280;60419;48.880;18.036;2024-01-07T12:53:33;98116.06;;;-1.46;65.07
72428;BME280;60419;48.880;18.036;2024-01-07T12:56:19;98116.88;;;-1.46;64.94
72428;BME280;60419;48.880;18.036;2024-01-07T12:59:04;98106.28;;;-1.73;65.95
72428;BME280;60419;48.880;18.036;2024-01-07T13:01:50;98095.44;;;-1.93;66.64
72428;BME280;60419;48.880;18.036;2024-01-07T13:04:36;98096.41;;;-1.77;64.97
72428;BME280;60419;48.880;18.036;2024-01-07T13:07:22;98100.97;;;-1.73;65.61
72428;BME280;60419;48.880;18.036;2024-01-07T13:10:08;98105.72;;;-1.97;65.27
72428;BME280;60419;48.880;18.036;2024-01-07T13:12:54;98097.53;;;-1.95;65.81
72428;BME280;60419;48.880;18.036;2024-01-07T13:15:40;98114.84;;;-1.88;65.51
72428;BME280;60419;48.880;18.036;2024-01-07T13:18:28;98104.69;;;-1.96;65.67
72428;BME280;60419;48.880;18.036;2024-01-07T13:21:13;98098.03;;;-1.98;65.49
72428;BME280;60419;48.880;18.036;2024-01-07T13:23:59;98131.16;;;-1.96;65.50
72428;BME280;60419;48.880;18.036;2024-01-07T13:26:46;97806.50;;;-3.65;64.41
72428;BME280;60419;48.880;18.036;2024-01-07T13:29:31;98131.50;;;-1.87;65.80
72428;BME280;60419;48.880;18.036;2024-01-07T13:32:16;98104.59;;;-1.79;65.12
72428;BME280;60419;48.880;18.036;2024-01-07T13:35:06;98148.00;;;-2.02;64.87
72428;BME280;60419;48.880;18.036;2024-01-07T13:37:55;98120.91;;;-1.87;64.44
72428;BME280;60419;48.880;18.036;2024-01-07T13:40:40;98123.25;;;-1.69;64.82
72428;BME280;60419;48.880;18.036;2024-01-07T13:43:26;98099.00;;;-1.82;65.11
72428;BME280;60419;48.880;18.036;2024-01-07T13:46:14;98121.19;;;-1.89;64.55
72428;BME280;60419;48.880;18.036;2024-01-07T13:48:59;98135.81;;;-2.03;64.47
72428;BME280;60419;48.880;18.036;2024-01-07T13:51:45;98148.63;;;-2.17;65.18
72428;BME280;60419;48.880;18.036;2024-01-07T13:54:30;98104.97;;;-2.14;64.49
72428;BME280;60419;48.880;18.036;2024-01-07T13:57:16;98070.06;;;-2.33;64.72
72428;BME280;60419;48.880;18.036;2024-01-07T14:00:01;98142.63;;;-2.29;64.98
72428;BME280;60419;48.880;18.036;2024-01-07T14:02:53;98158.13;;;-2.16;64.43
72428;BME280;60419;48.880;18.036;2024-01-07T14:05:38;98065.47;;;-2.21;65.11
72428;BME280;60419;48.880;18.036;2024-01-07T14:08:24;98133.97;;;-2.41;64.23
72428;BME280;60419;48.880;18.036;2024-01-07T14:11:10;98125.31;;;-2.37;64.79
72428;BME280;60419;48.880;18.036;2024-01-07T14:13:55;98124.03;;;-2.34;64.69
72428;BME280;60419;48.880;18.036;2024-01-07T14:16:41;98125.16;;;-2.30;65.08
72428;BME280;60419;48.880;18.036;2024-01-07T14:19:26;98132.16;;;-2.41;65.33
72428;BME280;60419;48.880;18.036;2024-01-07T14:22:11;98158.97;;;-2.49;65.38
72428;BME280;60419;48.880;18.036;2024-01-07T14:24:58;98127.81;;;-2.47;64.63
72428;BME280;60419;48.880;18.036;2024-01-07T14:27:43;98145.75;;;-2.32;64.36
72428;BME280;60419;48.880;18.036;2024-01-07T14:30:28;98107.22;;;-2.62;65.18
72428;BME280;60419;48.880;18.036;2024-01-07T14:33:14;98177.91;;;-2.40;64.96
72428;BME280;60419;48.880;18.036;2024-01-07T14:36:02;98185.84;;;-2.40;65.24